Time;durP1;ratioP1;P1;durP2;ratioP2;P2;SDS_P1;SDS_P2;PMS_P1;PMS_P2;Temp;Humidity;BMP_temperature;BMP_pressure;BME280_temperature;BME280_humidity;BME280_pressure;Samples;Min_cycle;Max_cycle;Signal;HPM_P1;HPM_P2
2021/12/22 00:01:42;;;;;;;23.83;16.40;;;-3.30;99.90;;;;;;5033404;28;20494;-66
2021/12/22 00:04:08;;;;;;;22.67;16.58;;;-3.30;99.90;;;;;;5034133;28;20049;-66
2021/12/22 00:06:35;;;;;;;19.70;14.85;;;-3.40;99.90;;;;;;5034019;28;20046;-67
2021/12/22 00:09:03;;;;;;;21.08;14.98;;;-3.40;99.90;;;;;;5015669;28;20056;-66
2021/12/22 00:11:28;;;;;;;25.63;16.15;;;-3.40;99.90;;;;;;5033649;28;20049;-65
2021/12/22 00:13:54;;;;;;;22.17;15.52;;;-3.40;99.90;;;;;;5027672;28;20046;-66
2021/12/22 00:16:20;;;;;;;23.75;15.43;;;-3.40;99.90;;;;;;5033528;28;20046;-65
2021/12/22 00:18:45;;;;;;;23.02;15.80;;;-3.40;99.90;;;;;;5033303;28;20413;-67
2021/12/22 00:21:11;;;;;;;21.17;15.13;;;-3.40;99.90;;;;;;5033133;28;20056;-65
2021/12/22 00:23:38;;;;;;;23.08;15.50;;;-3.40;99.90;;;;;;5015754;28;20136;-66
2021/12/22 00:26:04;;;;;;;23.90;16.42;;;-3.00;99.90;;;;;;5033037;28;20104;-66
2021/12/22 00:28:29;;;;;;;22.77;15.60;;;-3.40;99.90;;;;;;5010051;28;20060;-66
2021/12/22 00:30:56;;;;;;;23.25;15.75;;;-3.40;99.90;;;;;;5013609;28;20054;-66
2021/12/22 00:33:21;;;;;;;21.50;14.23;;;-3.40;99.90;;;;;;4997491;28;20045;-67
2021/12/22 00:35:47;;;;;;;24.55;15.38;;;-3.50;99.90;;;;;;5013569;28;20485;-66
2021/12/22 00:38:18;;;;;;;22.90;15.23;;;-3.50;99.90;;;;;;5013325;28;20520;-66
2021/12/22 00:40:45;;;;;;;21.23;15.88;;;-3.50;99.90;;;;;;4996107;28;20061;-66
2021/12/22 00:43:11;;;;;;;21.73;15.07;;;-3.50;99.90;;;;;;5013586;28;20064;-67
2021/12/22 00:45:37;;;;;;;23.13;15.57;;;-3.50;99.90;;;;;;5032788;28;20085;-67
2021/12/22 00:48:05;;;;;;;19.42;14.10;;;-3.50;99.90;;;;;;5026169;28;20054;-67
2021/12/22 00:50:32;;;;;;;21.50;14.40;;;-3.50;99.90;;;;;;5013382;28;20169;-66
2021/12/22 00:52:57;;;;;;;22.13;14.63;;;-3.50;99.90;;;;;;5013253;28;20050;-67
2021/12/22 00:55:23;;;;;;;18.85;13.73;;;-3.50;99.90;;;;;;5009697;28;20054;-67
2021/12/22 00:57:49;;;;;;;21.15;14.25;;;-3.50;99.90;;;;;;5015238;28;20132;-66
2021/12/22 01:00:18;;;;;;;19.98;14.00;;;-3.50;99.90;;;;;;5032798;28;20084;-66
2021/12/22 01:02:45;;;;;;;18.85;13.20;;;-3.50;99.90;;;;;;5008345;28;20438;-66
2021/12/22 01:05:14;;;;;;;21.27;14.82;;;-3.60;99.90;;;;;;5030457;28;20054;-67
2021/12/22 01:07:41;;;;;;;21.83;14.38;;;-3.50;99.90;;;;;;5032944;28;20429;-66
2021/12/22 01:10:08;;;;;;;23.10;14.45;;;-3.60;99.90;;;;;;5032893;28;20080;-67
2021/12/22 01:12:34;;;;;;;19.77;13.95;;;-3.60;99.90;;;;;;5015151;28;20050;-66
2021/12/22 01:15:00;;;;;;;19.38;13.55;;;-3.60;99.90;;;;;;5032542;28;20050;-66
2021/12/22 01:17:25;;;;;;;21.92;14.13;;;-3.60;99.90;;;;;;5026353;28;20053;-67
2021/12/22 01:20:03;;;;;;;19.77;13.45;;;-3.60;99.90;;;;;;5004761;28;20471;-66
2021/12/22 01:22:37;;;;;;;23.42;14.40;;;-3.60;99.90;;;;;;5014836;28;20474;-66
2021/12/22 01:25:06;;;;;;;20.58;14.95;;;-3.60;99.90;;;;;;4998202;28;20051;-66
2021/12/22 01:27:36;;;;;;;20.17;13.68;;;-3.60;99.90;;;;;;5032661;28;20049;-68
2021/12/22 01:30:09;;;;;;;21.02;14.60;;;-3.70;99.90;;;;;;5014921;28;20057;-67
2021/12/22 01:32:35;;;;;;;19.17;13.38;;;-3.70;99.90;;;;;;5031843;28;20056;-67
2021/12/22 01:35:01;;;;;;;18.50;12.57;;;-3.70;99.90;;;;;;5036217;28;20057;-66
2021/12/22 01:37:27;;;;;;;19.52;13.52;;;-3.70;99.90;;;;;;5036675;28;20057;-65
2021/12/22 01:39:52;;;;;;;19.75;13.60;;;-3.70;99.90;;;;;;5018328;28;20546;-66
2021/12/22 01:42:18;;;;;;;18.95;13.02;;;-3.70;99.90;;;;;;5036617;28;20045;-66
2021/12/22 01:50:31;;;;;;;19.83;12.55;;;-3.80;99.90;;;;;;5005446;28;20441;-67
2021/12/22 01:52:58;;;;;;;21.23;12.60;;;-3.80;99.90;;;;;;5018707;28;20084;-67
2021/12/22 01:55:34;;;;;;;15.00;11.55;;;-3.80;99.90;;;;;;5036596;28;20083;-67
2021/12/22 01:58:01;;;;;;;17.48;12.68;;;-3.80;99.90;;;;;;5018270;28;20053;-65
2021/12/22 02:00:29;;;;;;;19.88;12.98;;;-3.80;99.90;;;;;;5018890;28;20386;-67
2021/12/22 02:02:56;;;;;;;19.98;13.25;;;-3.80;99.90;;;;;;5006249;28;20073;-67
2021/12/22 02:05:22;;;;;;;17.33;12.30;;;-3.80;99.90;;;;;;5007196;28;20057;-66
2021/12/22 02:07:49;;;;;;;19.45;13.30;;;-3.90;99.90;;;;;;5035524;28;20474;-66
2021/12/22 02:10:34;;;;;;;19.40;13.32;;;-3.80;99.90;;;;;;5036202;28;20064;-66
2021/12/22 02:13:03;;;;;;;19.02;12.63;;;-3.80;99.90;;;;;;5035835;28;20095;-67
2021/12/22 02:15:33;;;;;;;20.98;13.40;;;-3.90;99.90;;;;;;5036063;28;20492;-66
2021/12/22 02:18:02;;;;;;;18.05;12.93;;;-3.80;99.90;;;;;;5027983;28;20041;-65
2021/12/22 02:20:27;;;;;;;20.17;13.73;;;-3.90;99.90;;;;;;5017874;28;20049;-66
2021/12/22 02:22:57;;;;;;;19.05;12.75;;;-3.90;99.90;;;;;;5034980;28;20041;-66
2021/12/22 02:25:32;;;;;;;20.42;12.90;;;-3.90;99.90;;;;;;5018110;28;20053;-66
2021/12/22 02:28:00;;;;;;;21.75;13.65;;;-3.90;99.90;;;;;;5017861;28;20127;-65
2021/12/22 02:30:28;;;;;;;20.08;13.30;;;-4.00;99.90;;;;;;5015610;28;20049;-65
2021/12/22 02:35:38;;;;;;;23.05;13.88;;;-4.00;99.90;;;;;;5017901;28;20061;-66
2021/12/22 02:38:07;;;;;;;24.92;13.77;;;-4.00;99.90;;;;;;5035211;28;20053;-66
2021/12/22 02:40:33;;;;;;;21.17;13.52;;;-4.00;99.90;;;;;;5017957;28;20362;-65
2021/12/22 02:43:05;;;;;;;21.02;13.20;;;-4.00;99.90;;;;;;5035042;28;20050;-66
2021/12/22 02:45:33;;;;;;;20.50;14.15;;;-4.00;99.90;;;;;;5032579;28;20065;-65
2021/12/22 02:47:59;;;;;;;21.17;12.32;;;-4.00;99.90;;;;;;5015314;28;20057;-66
2021/12/22 02:50:25;;;;;;;23.05;14.02;;;-4.10;99.90;;;;;;4998289;28;20062;-65
2021/12/22 02:53:09;;;;;;;23.92;13.75;;;-4.10;99.90;;;;;;5026945;28;20053;-66
2021/12/22 02:55:58;;;;;;;21.77;14.75;;;-4.10;99.90;;;;;;5034980;28;20049;-66
2021/12/22 02:58:56;;;;;;;21.85;13.48;;;-4.10;99.90;;;;;;5034569;28;20124;-65
2021/12/22 03:03:58;;;;;;;19.95;12.82;;;-4.10;99.90;;;;;;5035116;28;20057;-65
2021/12/22 03:06:54;;;;;;;21.23;13.18;;;-4.10;99.90;;;;;;5034953;28;20049;-66
2021/12/22 03:09:34;;;;;;;20.80;12.55;;;-4.10;99.90;;;;;;5001134;28;20485;-65
2021/12/22 03:12:05;;;;;;;22.05;13.65;;;-4.10;99.90;;;;;;5016761;28;20049;-65
2021/12/22 03:14:31;;;;;;;22.95;13.73;;;-4.20;99.90;;;;;;5016922;28;20058;-65
2021/12/22 03:16:58;;;;;;;22.30;13.50;;;-4.20;99.90;;;;;;5012622;28;20045;-66
2021/12/22 03:19:27;;;;;;;23.58;14.40;;;-4.20;99.90;;;;;;5034988;28;20041;-65
2021/12/22 03:21:59;;;;;;;20.27;12.60;;;-4.20;99.90;;;;;;5016650;28;20053;-65
2021/12/22 03:24:27;;;;;;;22.13;13.02;;;-4.20;99.90;;;;;;5015952;28;20059;-66
2021/12/22 03:26:52;;;;;;;23.02;13.13;;;-4.30;99.90;;;;;;5016673;28;20053;-66
2021/12/22 03:29:18;;;;;;;21.73;12.77;;;-4.30;99.90;;;;;;5034335;28;20402;-66
2021/12/22 03:31:46;;;;;;;23.35;13.75;;;-4.30;99.90;;;;;;5015926;28;20171;-65
2021/12/22 03:34:12;;;;;;;21.58;13.20;;;-4.30;99.90;;;;;;5034613;28;20169;-65
2021/12/22 03:36:40;;;;;;;21.67;13.90;;;-4.30;99.90;;;;;;5034059;28;20501;-67
2021/12/22 03:39:06;;;;;;;23.83;13.90;;;-4.30;99.90;;;;;;5024169;28;20045;-66
2021/12/22 03:41:34;;;;;;;23.23;13.45;;;-4.30;99.90;;;;;;5016581;28;20045;-65
2021/12/22 03:44:01;;;;;;;24.75;13.95;;;-4.30;99.90;;;;;;5034225;28;20053;-66
2021/12/22 03:46:26;;;;;;;24.15;12.75;;;-4.40;99.90;;;;;;5015587;28;20053;-65
2021/12/22 03:48:52;;;;;;;18.65;11.73;;;-4.30;99.90;;;;;;5027717;28;20059;-66
2021/12/22 03:51:17;;;;;;;21.65;12.90;;;-4.40;99.90;;;;;;5054006;28;20068;-66
2021/12/22 03:53:43;;;;;;;27.27;14.63;;;-4.30;99.90;;;;;;5033649;28;20140;-66
2021/12/22 03:56:09;;;;;;;18.77;11.80;;;-4.40;99.90;;;;;;5016146;28;20149;-65
2021/12/22 03:58:34;;;;;;;22.77;13.40;;;-4.40;99.90;;;;;;5016938;28;20100;-67
2021/12/22 04:01:00;;;;;;;23.92;14.43;;;-4.40;99.90;;;;;;5033434;28;20057;-66
2021/12/22 04:03:31;;;;;;;21.17;14.13;;;-4.40;99.90;;;;;;5044211;28;20084;-67
2021/12/22 04:05:56;;;;;;;20.33;13.18;;;-4.40;99.90;;;;;;5035931;28;20434;-68
2021/12/22 04:08:22;;;;;;;25.75;13.65;;;-4.50;99.90;;;;;;5034394;28;20136;-67
2021/12/22 04:10:49;;;;;;;23.17;12.95;;;-4.40;99.90;;;;;;4999321;28;20208;-67
2021/12/22 04:13:15;;;;;;;22.88;13.55;;;-4.40;99.90;;;;;;5015795;28;20053;-66
2021/12/22 04:15:42;;;;;;;20.15;12.95;;;-4.40;99.90;;;;;;5015543;28;20535;-66
2021/12/22 04:18:08;;;;;;;24.15;13.65;;;-4.50;99.90;;;;;;5000220;28;20084;-66
2021/12/22 04:20:34;;;;;;;21.38;12.93;;;-4.50;99.90;;;;;;5045803;28;20096;-68
2021/12/22 04:23:01;;;;;;;21.17;12.70;;;-4.50;99.90;;;;;;5053409;28;20056;-66
2021/12/22 04:25:28;;;;;;;21.73;13.73;;;-4.50;99.90;;;;;;5035137;28;20049;-66
2021/12/22 04:28:04;;;;;;;21.95;13.50;;;-4.50;99.90;;;;;;5019261;28;20052;-66
2021/12/22 04:30:32;;;;;;;22.58;13.90;;;-4.50;99.90;;;;;;5019260;28;20495;-66
2021/12/22 04:32:58;;;;;;;27.40;14.73;;;-4.50;99.90;;;;;;5034819;28;20049;-66
2021/12/22 04:35:24;;;;;;;24.67;14.45;;;-4.50;99.90;;;;;;5035038;28;20064;-67
2021/12/22 04:37:50;;;;;;;25.65;13.48;;;-4.50;99.90;;;;;;5052605;28;20091;-67
2021/12/22 04:40:16;;;;;;;23.92;13.73;;;-4.50;99.90;;;;;;5053209;28;20061;-68
2021/12/22 04:42:43;;;;;;;23.55;14.27;;;-4.60;99.90;;;;;;5051706;28;20088;-67
2021/12/22 04:45:09;;;;;;;23.95;13.27;;;-4.50;99.90;;;;;;5019510;28;20040;-66
2021/12/22 04:47:35;;;;;;;24.77;13.13;;;-4.60;99.90;;;;;;5052232;28;20091;-67
2021/12/22 04:50:03;;;;;;;20.50;13.00;;;-4.60;99.90;;;;;;5053140;28;20144;-67
2021/12/22 04:52:38;;;;;;;22.90;14.23;;;-4.60;99.90;;;;;;5052574;28;20045;-66
2021/12/22 04:55:04;;;;;;;21.65;13.27;;;-4.60;99.90;;;;;;5052964;28;20064;-67
2021/12/22 04:57:31;;;;;;;23.10;13.60;;;-4.60;99.90;;;;;;5034805;28;20060;-66
2021/12/22 04:59:57;;;;;;;23.58;14.93;;;-4.60;99.90;;;;;;5034523;28;20052;-66
2021/12/22 05:02:23;;;;;;;24.38;14.32;;;-4.60;99.90;;;;;;5034612;28;20084;-67
2021/12/22 05:04:48;;;;;;;21.75;14.02;;;-4.60;99.90;;;;;;5052864;28;20095;-67
2021/12/22 05:07:14;;;;;;;23.95;14.15;;;-4.60;99.90;;;;;;5034358;28;20572;-66
2021/12/22 05:09:39;;;;;;;21.08;13.23;;;-4.60;99.90;;;;;;5018252;28;20056;-66
2021/12/22 05:12:05;;;;;;;21.25;12.85;;;-4.60;99.90;;;;;;5050863;28;20044;-67
2021/12/22 05:14:31;;;;;;;21.98;12.93;;;-4.60;99.90;;;;;;5053123;28;20056;-67
2021/12/22 05:17:01;;;;;;;23.20;13.50;;;-4.60;99.90;;;;;;5034334;28;20063;-66
2021/12/22 05:19:27;;;;;;;26.38;14.45;;;-4.60;99.90;;;;;;5035100;28;20105;-66
2021/12/22 05:21:53;;;;;;;22.58;13.65;;;-4.60;99.90;;;;;;5035130;28;20052;-66
2021/12/22 05:24:18;;;;;;;22.15;13.50;;;-4.60;99.90;;;;;;5052380;28;20053;-67
2021/12/22 05:26:44;;;;;;;23.13;13.65;;;-4.60;99.90;;;;;;5051884;28;20481;-67
2021/12/22 05:29:12;;;;;;;21.20;13.55;;;-4.60;99.90;;;;;;5033707;28;20501;-66
2021/12/22 05:31:38;;;;;;;25.42;14.88;;;-4.60;99.90;;;;;;5034636;28;20075;-66
2021/12/22 05:34:04;;;;;;;23.35;13.38;;;-4.60;99.90;;;;;;5034396;28;20053;-66
2021/12/22 05:36:29;;;;;;;21.77;12.80;;;-4.60;99.90;;;;;;5034787;28;20053;-67
2021/12/22 05:38:55;;;;;;;22.50;13.65;;;-4.60;99.90;;;;;;5033761;28;20072;-67
2021/12/22 05:41:21;;;;;;;19.55;12.68;;;-4.60;99.90;;;;;;5052232;28;20141;-66
2021/12/22 05:43:47;;;;;;;24.08;13.02;;;-4.60;99.90;;;;;;5033921;28;20056;-68
2021/12/22 05:46:13;;;;;;;26.92;13.48;;;-4.60;99.90;;;;;;5017690;28;20071;-67
2021/12/22 05:48:39;;;;;;;23.05;13.13;;;-4.60;99.90;;;;;;5052538;28;20045;-66
2021/12/22 05:51:04;;;;;;;20.92;13.15;;;-4.60;99.90;;;;;;5052424;28;20045;-67
2021/12/22 05:53:30;;;;;;;22.95;13.23;;;-4.60;99.90;;;;;;5034233;28;20053;-67
2021/12/22 05:55:57;;;;;;;19.63;12.25;;;-4.60;99.90;;;;;;5052324;28;20094;-68
2021/12/22 05:58:23;;;;;;;24.80;13.90;;;-4.60;99.90;;;;;;5047914;28;20063;-66
2021/12/22 06:00:49;;;;;;;23.75;12.65;;;-4.60;99.90;;;;;;5040094;28;20056;-68
2021/12/22 06:03:15;;;;;;;26.13;14.45;;;-4.60;99.90;;;;;;5034775;28;20049;-69
2021/12/22 06:05:41;;;;;;;22.90;13.45;;;-4.60;99.90;;;;;;5052169;28;20057;-67
2021/12/22 06:08:07;;;;;;;24.02;13.18;;;-4.60;99.90;;;;;;5034231;28;20045;-67
2021/12/22 06:10:35;;;;;;;22.77;13.07;;;-4.60;99.90;;;;;;5034891;28;20577;-67
2021/12/22 06:13:07;;;;;;;23.92;13.30;;;-4.60;99.90;;;;;;5034788;28;20155;-67
2021/12/22 06:15:34;;;;;;;23.55;12.43;;;-4.60;99.90;;;;;;5033782;28;20547;-66
2021/12/22 06:18:01;;;;;;;24.02;14.45;;;-4.60;99.90;;;;;;5034247;28;20100;-67
2021/12/22 06:20:27;;;;;;;24.05;13.30;;;-4.60;99.90;;;;;;5037031;28;20053;-67
2021/12/22 06:22:53;;;;;;;21.20;13.23;;;-4.70;99.90;;;;;;5055389;28;20342;-68
2021/12/22 06:25:19;;;;;;;22.85;13.20;;;-4.60;99.90;;;;;;5026184;28;20045;-66
2021/12/22 06:27:45;;;;;;;23.33;13.05;;;-4.60;99.90;;;;;;5036871;28;20063;-66
2021/12/22 06:30:11;;;;;;;23.05;13.60;;;-4.60;99.90;;;;;;5037843;28;20385;-67
2021/12/22 06:32:36;;;;;;;27.95;14.43;;;-4.60;99.90;;;;;;5054872;28;20048;-68
2021/12/22 06:35:02;;;;;;;22.92;13.20;;;-4.60;99.90;;;;;;5037950;28;20122;-67
2021/12/22 06:37:28;;;;;;;22.77;14.02;;;-4.60;99.90;;;;;;5037280;28;20134;-67
2021/12/22 06:39:53;;;;;;;23.48;13.50;;;-4.60;99.90;;;;;;5036410;28;20398;-67
2021/12/22 06:42:19;;;;;;;24.65;13.00;;;-4.60;99.90;;;;;;5053762;28;20404;-66
2021/12/22 06:44:45;;;;;;;25.88;13.88;;;-4.70;99.90;;;;;;5042975;28;20053;-68
2021/12/22 06:47:10;;;;;;;21.00;12.73;;;-4.60;99.90;;;;;;5053005;28;20075;-68
2021/12/22 06:49:37;;;;;;;20.75;12.38;;;-4.60;99.90;;;;;;5034538;28;20128;-68
2021/12/22 06:52:03;;;;;;;22.67;14.05;;;-4.60;99.90;;;;;;5028021;28;20081;-67
2021/12/22 06:54:29;;;;;;;22.35;13.52;;;-4.60;99.90;;;;;;5049559;28;20046;-68
2021/12/22 06:56:55;;;;;;;20.40;12.68;;;-4.60;99.90;;;;;;5017055;28;20050;-69
2021/12/22 06:59:20;;;;;;;20.60;11.70;;;-4.60;99.90;;;;;;5028263;28;20045;-67
2021/12/22 07:01:46;;;;;;;23.73;13.50;;;-4.50;99.90;;;;;;5054150;28;20045;-67
2021/12/22 07:04:12;;;;;;;24.20;13.38;;;-4.60;99.90;;;;;;5049270;28;20049;-69
2021/12/22 07:06:37;;;;;;;20.30;12.52;;;-4.60;99.90;;;;;;5054686;28;20041;-68
2021/12/22 07:09:05;;;;;;;21.33;12.02;;;-4.60;99.90;;;;;;5020198;28;20078;-68
2021/12/22 07:11:32;;;;;;;20.05;13.07;;;-4.60;99.90;;;;;;5026247;28;20064;-68
2021/12/22 07:13:58;;;;;;;21.67;13.77;;;-4.60;99.90;;;;;;5018007;28;20053;-68
2021/12/22 07:16:23;;;;;;;21.92;12.25;;;-4.60;99.90;;;;;;5052374;28;20064;-68
2021/12/22 07:18:49;;;;;;;22.98;13.25;;;-4.60;99.90;;;;;;5034554;28;20115;-68
2021/12/22 07:21:14;;;;;;;20.88;11.98;;;-4.70;99.90;;;;;;5035805;28;20053;-68
2021/12/22 07:23:40;;;;;;;21.48;13.15;;;-4.60;99.90;;;;;;5054231;28;20437;-69
2021/12/22 07:26:07;;;;;;;23.77;12.75;;;-4.60;99.90;;;;;;5034873;28;20049;-70
2021/12/22 07:28:33;;;;;;;20.60;12.93;;;-4.70;99.90;;;;;;5039529;28;20053;-67
2021/12/22 07:30:58;;;;;;;20.73;12.30;;;-4.70;99.90;;;;;;5032889;28;20523;-68
2021/12/22 07:33:28;;;;;;;20.85;11.90;;;-4.70;99.90;;;;;;5016627;28;20140;-68
2021/12/22 07:35:59;;;;;;;24.23;13.93;;;-4.70;99.90;;;;;;5028899;28;20047;-68
2021/12/22 07:38:30;;;;;;;24.48;13.20;;;-4.70;99.90;;;;;;5035703;28;20486;-68
2021/12/22 07:40:59;;;;;;;23.40;14.18;;;-4.70;99.90;;;;;;5034619;28;20508;-68
2021/12/22 07:43:26;;;;;;;23.60;13.55;;;-4.70;99.90;;;;;;5049715;28;20061;-68
2021/12/22 07:45:53;;;;;;;22.10;12.93;;;-4.50;99.90;;;;;;5007817;28;20572;-68
2021/12/22 07:48:18;;;;;;;22.33;12.43;;;-4.70;99.90;;;;;;5032386;28;20056;-67
2021/12/22 07:50:45;;;;;;;25.60;13.75;;;-4.70;99.90;;;;;;5033700;28;20041;-68
2021/12/22 07:53:11;;;;;;;23.67;12.65;;;-4.60;99.90;;;;;;5022545;28;20132;-67
2021/12/22 07:55:36;;;;;;;20.83;11.93;;;-4.70;99.90;;;;;;5052383;28;20053;-67
2021/12/22 07:58:02;;;;;;;25.95;13.55;;;-4.60;99.90;;;;;;5033118;28;20049;-68
2021/12/22 08:00:29;;;;;;;23.73;13.68;;;-4.60;99.90;;;;;;5032607;28;20099;-68
2021/12/22 08:02:55;;;;;;;23.20;13.30;;;-4.60;99.90;;;;;;5052985;28;20128;-68
2021/12/22 08:05:21;;;;;;;27.50;13.45;;;-4.60;99.90;;;;;;5026903;28;20057;-67
2021/12/22 08:07:47;;;;;;;22.95;13.18;;;-4.60;99.90;;;;;;5035577;28;20059;-68
2021/12/22 08:10:13;;;;;;;22.83;13.20;;;-4.50;99.90;;;;;;5035631;28;20120;-70
2021/12/22 08:12:41;;;;;;;22.98;12.82;;;-4.50;99.90;;;;;;5034644;28;20049;-70
2021/12/22 08:15:07;;;;;;;24.35;13.05;;;-4.50;99.90;;;;;;5034237;28;20072;-69
2021/12/22 08:17:34;;;;;;;25.08;14.38;;;-4.50;99.90;;;;;;5030432;28;20160;-67
2021/12/22 08:20:00;;;;;;;23.67;12.32;;;-4.40;99.90;;;;;;5041562;28;20048;-67
2021/12/22 08:22:27;;;;;;;24.83;13.20;;;-4.40;99.90;;;;;;5053071;28;20084;-68
2021/12/22 08:24:52;;;;;;;25.15;13.48;;;-4.40;99.90;;;;;;5025507;28;20064;-69
2021/12/22 08:27:21;;;;;;;18.55;12.13;;;-4.40;99.90;;;;;;5026052;28;20050;-69
2021/12/22 08:29:47;;;;;;;23.45;13.15;;;-4.30;99.90;;;;;;5048415;28;20049;-67
2021/12/22 08:32:13;;;;;;;22.05;13.30;;;-4.30;99.90;;;;;;5028001;28;20049;-68
2021/12/22 08:34:41;;;;;;;24.67;13.38;;;-4.20;99.90;;;;;;5031960;28;21632;-69
2021/12/22 08:39:53;;;;;;;28.70;14.20;;;-4.10;99.90;;;;;;5038293;28;20044;-69
2021/12/22 08:42:20;;;;;;;22.95;13.07;;;-4.10;99.90;;;;;;5046320;28;20374;-67
2021/12/22 08:44:45;;;;;;;24.70;14.85;;;-4.00;99.90;;;;;;5032318;28;20143;-69
2021/12/22 08:47:11;;;;;;;29.48;14.90;;;-3.90;99.90;;;;;;5033794;28;20497;-67
2021/12/22 08:49:37;;;;;;;25.98;15.18;;;-3.90;99.90;;;;;;5033893;28;20128;-69
2021/12/22 08:52:04;;;;;;;24.88;14.02;;;-3.80;99.90;;;;;;5034888;28;20053;-68
2021/12/22 08:54:29;;;;;;;20.60;14.00;;;-3.70;99.90;;;;;;5034363;28;20452;-69
2021/12/22 08:56:55;;;;;;;29.80;15.63;;;-3.50;99.90;;;;;;5034905;28;20049;-69
2021/12/22 08:59:22;;;;;;;21.83;13.45;;;-3.60;99.90;;;;;;5034670;28;20053;-69
2021/12/22 09:01:49;;;;;;;29.63;14.35;;;-3.50;99.90;;;;;;5052449;28;20452;-68
2021/12/22 09:04:16;;;;;;;26.15;14.45;;;-3.40;99.90;;;;;;5051781;28;20088;-69
2021/12/22 09:06:42;;;;;;;27.33;14.73;;;-3.30;99.90;;;;;;5035140;28;20052;-68
2021/12/22 09:09:09;;;;;;;24.52;14.77;;;-3.50;99.90;;;;;;5052920;28;20053;-68
2021/12/22 09:11:35;;;;;;;31.52;15.05;;;-3.30;99.90;;;;;;5034665;28;20100;-69
2021/12/22 09:14:03;;;;;;;23.80;14.20;;;-3.30;99.90;;;;;;5034495;28;20483;-67
2021/12/22 09:16:29;;;;;;;22.95;14.38;;;-3.20;99.90;;;;;;5034107;28;20053;-69
2021/12/22 09:18:56;;;;;;;23.83;15.02;;;-3.20;99.90;;;;;;5052639;28;20482;-69
2021/12/22 09:21:22;;;;;;;28.23;14.77;;;-3.20;99.90;;;;;;5051763;28;20351;-68
2021/12/22 09:23:48;;;;;;;23.65;14.95;;;-3.20;99.90;;;;;;5034953;28;20068;-70
2021/12/22 09:26:14;;;;;;;22.50;13.43;;;-3.10;99.90;;;;;;5034542;28;20048;-69
2021/12/22 09:28:39;;;;;;;28.50;14.50;;;-3.00;99.90;;;;;;5032294;28;20048;-69
2021/12/22 09:31:07;;;;;;;25.98;14.00;;;-3.10;99.90;;;;;;5029665;28;20126;-67
2021/12/22 09:33:33;;;;;;;24.58;14.50;;;-3.00;99.90;;;;;;5031500;28;20061;-69
2021/12/22 09:35:59;;;;;;;26.02;14.70;;;-2.90;99.90;;;;;;5042708;28;20057;-67
2021/12/22 09:38:25;;;;;;;22.23;13.30;;;-3.00;99.90;;;;;;5052243;28;20429;-67
2021/12/22 09:40:51;;;;;;;25.05;14.98;;;-3.00;99.90;;;;;;5052147;28;20092;-68
2021/12/22 09:43:17;;;;;;;23.65;14.95;;;-2.80;99.90;;;;;;5032046;28;20136;-69
2021/12/22 09:45:48;;;;;;;23.23;13.63;;;-2.80;99.90;;;;;;5042647;28;20057;-68
2021/12/22 09:50:52;;;;;;;20.17;12.40;;;-2.60;99.90;;;;;;5034040;28;20566;-68
2021/12/22 09:53:23;;;;;;;24.20;14.55;;;-2.70;99.90;;;;;;5034808;28;20041;-67
2021/12/22 09:55:50;;;;;;;25.63;14.85;;;-2.60;99.90;;;;;;5036888;28;20048;-68
2021/12/22 09:58:16;;;;;;;23.88;14.60;;;-2.50;99.90;;;;;;5032280;28;20072;-69
2021/12/22 10:00:42;;;;;;;25.85;14.65;;;-2.50;99.90;;;;;;5055214;28;20059;-68
2021/12/22 10:03:09;;;;;;;28.05;16.25;;;-2.50;99.90;;;;;;5037488;28;20421;-68
2021/12/22 10:05:36;;;;;;;23.20;15.02;;;-2.40;99.90;;;;;;5031418;28;20053;-69
2021/12/22 10:08:10;;;;;;;22.08;12.98;;;-2.40;99.90;;;;;;5037740;28;20057;-69
2021/12/22 10:10:38;;;;;;;26.17;15.43;;;-2.30;99.90;;;;;;5051205;28;20460;-68
2021/12/22 10:13:16;;;;;;;22.63;13.88;;;-2.30;99.90;;;;;;5055279;28;20049;-69
2021/12/22 10:15:44;;;;;;;24.33;13.27;;;-2.20;99.90;;;;;;5027377;28;20057;-68
2021/12/22 10:18:13;;;;;;;24.38;14.57;;;-2.10;99.90;;;;;;5055698;28;20080;-69
2021/12/22 10:20:40;;;;;;;23.88;13.88;;;-2.10;99.90;;;;;;5055065;28;20049;-69
2021/12/22 10:23:25;;;;;;;25.25;14.85;;;-2.00;99.90;;;;;;5025910;28;20120;-68
2021/12/22 10:25:55;;;;;;;22.73;14.45;;;-1.90;99.90;;;;;;5030916;28;20057;-71
2021/12/22 10:28:22;;;;;;;21.75;13.65;;;-1.80;99.90;;;;;;5034210;28;20060;-68
2021/12/22 10:30:50;;;;;;;21.75;13.77;;;-1.70;99.90;;;;;;5026056;28;20485;-70
2021/12/22 10:33:21;;;;;;;21.63;13.80;;;-1.70;99.90;;;;;;5033513;28;20121;-67
2021/12/22 10:35:50;;;;;;;19.70;13.50;;;-1.60;99.90;;;;;;5035593;28;20053;-67
2021/12/22 10:38:18;;;;;;;19.85;13.05;;;-1.50;99.90;;;;;;5056394;28;20057;-73
2021/12/22 10:40:47;;;;;;;18.45;11.82;;;-1.50;99.90;;;;;;5036231;28;20100;-71
2021/12/22 10:43:31;;;;;;;19.60;12.88;;;-1.50;99.90;;;;;;5054591;28;20132;-69
2021/12/22 10:46:03;;;;;;;21.70;12.43;;;-1.40;99.90;;;;;;5036885;28;20060;-69
2021/12/22 10:51:29;;;;;;;19.20;12.63;;;-1.30;99.90;;;;;;5044125;28;20059;-68
2021/12/22 10:53:56;;;;;;;23.85;11.40;;;-1.20;99.90;;;;;;5037407;28;20076;-69
2021/12/22 10:56:28;;;;;;;22.02;12.23;;;-1.20;99.90;;;;;;5054231;28;20476;-69
2021/12/22 10:59:12;;;;;;;18.27;12.13;;;-1.10;99.90;;;;;;5041996;28;20060;-69
2021/12/22 11:01:40;;;;;;;20.95;12.98;;;-1.10;99.90;;;;;;5036602;28;20816;-71
2021/12/22 11:04:15;;;;;;;17.67;11.88;;;-1.00;99.90;;;;;;5050085;28;20049;-70
2021/12/22 11:06:41;;;;;;;17.88;11.40;;;-1.00;99.90;;;;;;5024524;28;20285;-68
2021/12/22 11:09:14;;;;;;;17.67;11.40;;;-0.90;99.90;;;;;;5029067;28;20451;-70
2021/12/22 11:11:42;;;;;;;20.25;11.85;;;-0.90;99.90;;;;;;5036237;28;20041;-68
2021/12/22 11:14:11;;;;;;;18.40;11.82;;;-0.80;99.90;;;;;;5050280;28;20049;-69
2021/12/22 11:17:09;;;;;;;27.13;12.00;;;-0.70;99.90;;;;;;5030980;28;20049;-68
2021/12/22 11:19:47;;;;;;;18.35;12.05;;;;;;;;;;5050430;28;20037;-72
2021/12/22 11:22:15;;;;;;;24.73;13.07;;;-0.60;99.90;;;;;;5031963;28;20045;-68
2021/12/22 11:24:50;;;;;;;20.13;12.82;;;-0.60;99.90;;;;;;5053445;28;20037;-70
2021/12/22 11:27:19;;;;;;;18.58;12.40;;;-0.50;99.90;;;;;;5028517;28;20069;-68
2021/12/22 11:29:47;;;;;;;17.60;11.52;;;-0.50;99.90;;;;;;5035204;28;20049;-70
2021/12/22 11:32:15;;;;;;;18.73;11.98;;;-0.50;99.90;;;;;;5027718;28;20053;-70
2021/12/22 11:34:47;;;;;;;17.42;11.48;;;-0.50;99.90;;;;;;5049212;28;20098;-70
2021/12/22 11:37:13;;;;;;;21.30;12.85;;;-0.40;99.90;;;;;;5050123;28;20064;-71
2021/12/22 11:39:41;;;;;;;17.50;11.07;;;-0.40;99.90;;;;;;5027300;28;20049;-71
2021/12/22 11:42:09;;;;;;;17.73;10.82;;;-0.40;99.90;;;;;;5038101;28;20049;-69
2021/12/22 11:44:36;;;;;;;16.75;10.88;;;-0.40;99.90;;;;;;5034353;28;20041;-69
2021/12/22 11:47:07;;;;;;;20.50;11.52;;;-0.40;99.90;;;;;;5026379;28;20058;-68
2021/12/22 11:49:34;;;;;;;16.38;11.40;;;-0.40;99.90;;;;;;5048089;28;20124;-69
2021/12/22 11:52:03;;;;;;;17.20;11.73;;;-0.50;99.90;;;;;;5032934;28;20048;-70
2021/12/22 11:54:28;;;;;;;25.20;11.10;;;-0.50;99.90;;;;;;5029012;28;20049;-70
2021/12/22 11:56:57;;;;;;;19.42;11.70;;;-0.50;99.90;;;;;;5028816;28;20053;-70
2021/12/22 11:59:36;;;;;;;22.20;11.73;;;-0.50;99.90;;;;;;5035523;28;20084;-70
2021/12/22 12:02:32;;;;;;;19.38;12.30;;;-0.50;99.90;;;;;;5023947;28;20040;-69
2021/12/22 12:05:18;;;;;;;20.45;11.98;;;-0.50;99.90;;;;;;5014790;28;20481;-68
2021/12/22 12:07:59;;;;;;;16.95;11.32;;;-0.40;99.90;;;;;;5032073;28;20049;-68
2021/12/22 12:10:46;;;;;;;22.33;11.93;;;-0.40;99.90;;;;;;5026213;28;20052;-70
2021/12/22 12:14:09;;;;;;;18.38;11.38;;;-0.30;99.90;;;;;;5047186;28;20131;-69
2021/12/22 12:22:31;;;;;;;17.50;10.68;;;-0.20;99.90;;;;;;5034397;28;20049;-68
2021/12/22 12:24:57;;;;;;;17.88;11.20;;;-0.20;99.90;;;;;;5027549;28;20484;-69
2021/12/22 12:27:50;;;;;;;14.77;10.65;;;-0.10;99.90;;;;;;5035865;28;20185;-70
2021/12/22 12:30:40;;;;;;;18.85;10.93;;;0.00;99.90;;;;;;5053362;28;20045;-69
2021/12/22 12:33:07;;;;;;;17.35;11.10;;;0.10;99.90;;;;;;5035256;28;20056;-69
2021/12/22 12:35:36;;;;;;;18.00;11.43;;;0.20;99.90;;;;;;5052737;28;20059;-69
2021/12/22 12:38:17;;;;;;;18.33;11.40;;;0.20;99.90;;;;;;5034688;28;20413;-69
2021/12/22 12:40:57;;;;;;;20.33;11.75;;;0.30;99.90;;;;;;5048087;28;20048;-69
2021/12/22 12:43:42;;;;;;;19.45;10.95;;;0.30;99.90;;;;;;5036359;28;20083;-69
2021/12/22 12:46:20;;;;;;;19.80;10.95;;;0.30;99.90;;;;;;5034707;28;20510;-71
2021/12/22 12:48:53;;;;;;;18.42;11.32;;;0.30;99.90;;;;;;5035255;28;20114;-69
2021/12/22 12:51:28;;;;;;;18.00;10.23;;;0.20;99.90;;;;;;5035288;28;20053;-70
2021/12/22 12:53:58;;;;;;;19.25;11.68;;;0.20;99.90;;;;;;5033910;28;20080;-71
2021/12/22 12:56:34;;;;;;;16.45;10.80;;;0.20;99.90;;;;;;5015460;28;20080;-69
2021/12/22 12:59:08;;;;;;;19.90;11.20;;;0.10;99.90;;;;;;5015101;28;20073;-70
2021/12/22 13:01:50;;;;;;;16.55;11.50;;;0.10;99.90;;;;;;5014636;28;20062;-69